createdAt,value
2023-03-02T00:02:41.716Z,100.00
2023-03-02T00:05:49.218Z,100.00
2023-03-02T00:08:56.887Z,100.00
2023-03-02T00:12:00.186Z,100.00
2023-03-02T00:15:08.660Z,100.00
2023-03-02T00:18:13.233Z,100.00
2023-03-02T00:21:17.540Z,100.00
2023-03-02T00:24:25.475Z,100.00
2023-03-02T00:27:30.282Z,100.00
2023-03-02T00:30:34.802Z,100.00
2023-03-02T00:33:38.500Z,100.00
2023-03-02T00:36:44.742Z,100.00
2023-03-02T00:39:51.047Z,100.00
2023-03-02T00:42:53.852Z,100.00
2023-03-02T00:45:57.638Z,100.00
2023-03-02T00:49:06.658Z,100.00
2023-03-02T00:52:09.440Z,100.00
2023-03-02T00:55:12.741Z,100.00
2023-03-02T00:58:17.466Z,99.67
2023-03-02T01:01:21.171Z,95.19
2023-03-02T01:04:28.068Z,92.52
2023-03-02T01:07:35.143Z,94.04
2023-03-02T01:10:39.550Z,95.25
2023-03-02T01:13:49.215Z,95.43
2023-03-02T01:16:52.712Z,96.98
2023-03-02T01:19:58.587Z,96.08
2023-03-02T01:23:03.821Z,94.82
2023-03-02T01:26:07.441Z,96.09
2023-03-02T01:29:16.034Z,94.63
2023-03-02T01:32:19.773Z,96.43
2023-03-02T01:35:24.309Z,98.57
2023-03-02T01:38:29.069Z,97.30
2023-03-02T01:41:35.051Z,99.31
2023-03-02T01:44:45.712Z,95.87
2023-03-02T01:47:50.568Z,98.05
2023-03-02T01:50:54.251Z,96.59
2023-03-02T01:54:01.814Z,96.11
2023-03-02T01:57:06.629Z,96.54
2023-03-02T02:00:12.779Z,96.07
2023-03-02T02:03:23.962Z,96.71
2023-03-02T02:06:39.854Z,96.01
2023-03-02T02:09:46.736Z,98.11
2023-03-02T02:13:04.481Z,99.16
2023-03-02T02:16:14.451Z,100.00
2023-03-02T02:19:28.906Z,100.00
2023-03-02T02:22:54.290Z,100.00
2023-03-02T02:25:56.565Z,100.00
2023-03-02T02:29:02.014Z,100.00
2023-03-02T02:32:16.776Z,100.00
2023-03-02T02:35:32.986Z,100.00
2023-03-02T02:38:38.513Z,100.00
2023-03-02T02:41:42.439Z,100.00
2023-03-02T02:44:47.079Z,100.00
2023-03-02T02:47:52.703Z,100.00
2023-03-02T02:51:04.138Z,100.00
2023-03-02T02:54:06.327Z,100.00
2023-03-02T02:57:12.902Z,100.00
2023-03-02T03:00:18.069Z,100.00
2023-03-02T03:03:33.650Z,100.00
2023-03-02T03:06:45.869Z,100.00
2023-03-02T03:09:58.532Z,100.00
2023-03-02T03:13:04.939Z,100.00
2023-03-02T03:16:15.205Z,100.00
2023-03-02T03:19:25.149Z,100.00
2023-03-02T03:22:35.736Z,96.73
2023-03-02T03:25:40.927Z,96.18
2023-03-02T03:28:48.852Z,93.93
2023-03-02T03:31:57.635Z,93.95
2023-03-02T03:35:09.067Z,96.11
2023-03-02T03:38:18.605Z,97.88
2023-03-02T03:41:29.484Z,98.66
2023-03-02T03:44:34.207Z,99.92
2023-03-02T03:47:37.298Z,99.45
2023-03-02T03:50:40.976Z,100.00
2023-03-02T03:53:45.238Z,100.00
2023-03-02T03:56:55.790Z,100.00
2023-03-02T04:00:02.287Z,100.00
2023-03-02T04:03:08.204Z,100.00
2023-03-02T04:06:20.329Z,100.00
2023-03-02T04:09:25.282Z,100.00
2023-03-02T04:12:35.607Z,100.00
2023-03-02T04:15:39.356Z,100.00
2023-03-02T04:18:47.736Z,100.00
2023-03-02T04:21:57.060Z,100.00
2023-03-02T04:25:07.817Z,100.00
2023-03-02T04:28:10.307Z,100.00
2023-03-02T04:31:16.720Z,100.00
2023-03-02T04:34:22.925Z,100.00
2023-03-02T04:37:32.096Z,100.00
2023-03-02T04:40:36.005Z,100.00
2023-03-02T04:43:44.835Z,100.00
2023-03-02T04:46:49.559Z,100.00
2023-03-02T04:50:10.601Z,100.00
2023-03-02T04:53:15.121Z,100.00
2023-03-02T04:56:26.148Z,100.00
2023-03-02T04:59:31.335Z,97.71
2023-03-02T05:02:34.485Z,87.32
2023-03-02T05:05:37.963Z,85.48
2023-03-02T05:08:46.121Z,84.53
2023-03-02T05:12:00.587Z,82.77
2023-03-02T05:15:06.979Z,82.25
2023-03-02T05:18:21.265Z,81.79
2023-03-02T05:21:29.713Z,80.83
2023-03-02T05:24:39.013Z,79.80
2023-03-02T05:27:46.551Z,78.54
2023-03-02T05:30:50.248Z,80.22
2023-03-02T05:33:55.954Z,82.54
2023-03-02T05:37:07.077Z,78.65
2023-03-02T05:40:19.128Z,79.54
2023-03-02T05:43:22.476Z,76.96
2023-03-02T05:46:26.026Z,78.17
2023-03-02T05:49:33.882Z,76.26
2023-03-02T05:52:43.318Z,76.21
2023-03-02T05:55:48.362Z,75.49
2023-03-02T05:59:03.941Z,76.21
2023-03-02T06:02:17.769Z,75.42
2023-03-02T06:05:26.503Z,74.58
2023-03-02T06:08:31.750Z,75.47
2023-03-02T06:11:40.875Z,71.10
2023-03-02T06:14:43.837Z,71.95
2023-03-02T06:17:47.877Z,70.31
2023-03-02T06:20:55.483Z,70.48
2023-03-02T06:23:58.775Z,71.50
2023-03-02T06:27:06.473Z,69.13
2023-03-02T06:30:14.678Z,68.73
2023-03-02T06:33:19.514Z,67.45
2023-03-02T06:36:26.011Z,63.94
2023-03-02T06:39:32.199Z,53.14
2023-03-02T06:42:40.671Z,45.57
2023-03-02T06:45:46.071Z,43.78
2023-03-02T06:48:49.902Z,46.88
2023-03-02T06:51:57.651Z,48.72
2023-03-02T06:55:03.480Z,50.09
2023-03-02T06:58:08.515Z,50.56
2023-03-02T07:01:16.757Z,51.14
2023-03-02T07:04:24.949Z,49.36
2023-03-02T07:07:29.960Z,47.66
2023-03-02T07:10:34.122Z,46.41
2023-03-02T07:13:41.905Z,49.10
2023-03-02T07:16:47.625Z,51.20
2023-03-02T07:19:51.104Z,51.76
2023-03-02T07:22:55.256Z,51.70
2023-03-02T07:26:03.080Z,50.79
2023-03-02T07:29:06.434Z,48.82
2023-03-02T07:32:12.469Z,45.79
2023-03-02T07:35:20.219Z,46.94
2023-03-02T07:38:26.824Z,47.26
2023-03-02T07:41:34.026Z,47.46
2023-03-02T07:44:37.096Z,48.01
2023-03-02T07:47:40.042Z,47.20
2023-03-02T07:50:46.619Z,47.55
2023-03-02T07:53:49.528Z,47.54
2023-03-02T07:56:52.956Z,45.83
2023-03-02T07:59:59.069Z,45.39
2023-03-02T08:03:01.922Z,45.32
2023-03-02T08:06:07.342Z,45.96
2023-03-02T08:09:10.506Z,44.52
2023-03-02T08:12:14.772Z,45.37
2023-03-02T08:15:21.710Z,43.91
2023-03-02T08:18:25.228Z,43.98
2023-03-02T08:21:32.612Z,46.19
2023-03-02T08:24:42.654Z,43.41
2023-03-02T08:27:47.288Z,41.89
2023-03-02T08:31:05.523Z,42.57
2023-03-02T08:34:10.470Z,41.77
2023-03-02T08:37:22.496Z,42.29
2023-03-02T08:40:30.394Z,43.20
2023-03-02T08:43:34.934Z,43.23
2023-03-02T08:46:37.683Z,44.60
2023-03-02T08:49:51.434Z,41.86
2023-03-02T08:52:54.039Z,42.11
2023-03-02T08:56:01.516Z,42.67
2023-03-02T08:59:09.696Z,44.53
2023-03-02T09:02:15.369Z,43.04
2023-03-02T09:05:20.514Z,44.17
2023-03-02T09:08:25.235Z,42.57
2023-03-02T09:11:27.708Z,42.75
2023-03-02T09:14:33.886Z,41.76
2023-03-02T09:17:44.682Z,41.20
2023-03-02T09:20:53.889Z,42.29
2023-03-02T09:24:00.481Z,42.49
2023-03-02T09:27:09.747Z,42.63
2023-03-02T09:30:15.152Z,43.42
2023-03-02T09:33:18.733Z,43.45
2023-03-02T09:36:23.491Z,42.17
2023-03-02T09:39:27.194Z,41.93
2023-03-02T09:42:43.012Z,43.25
2023-03-02T09:45:53.221Z,41.99
2023-03-02T09:48:57.678Z,41.61
2023-03-02T09:52:16.095Z,42.88
2023-03-02T09:55:26.842Z,41.40
2023-03-02T09:58:35.662Z,43.74
2023-03-02T10:01:46.822Z,40.61
2023-03-02T10:04:53.631Z,41.50
2023-03-02T10:07:59.442Z,43.24
2023-03-02T10:11:14.924Z,42.74
2023-03-02T10:14:27.311Z,41.64
2023-03-02T10:17:38.304Z,41.23
2023-03-02T10:20:48.362Z,41.90
2023-03-02T10:23:56.958Z,42.63
2023-03-02T10:27:18.526Z,41.03
2023-03-02T10:30:37.909Z,40.68
2023-03-02T10:33:44.962Z,39.90
2023-03-02T10:36:48.618Z,40.27
2023-03-02T10:39:52.843Z,41.08
2023-03-02T10:42:58.799Z,40.21
2023-03-02T10:46:05.688Z,39.95
2023-03-02T10:49:41.160Z,39.79
2023-03-02T10:52:59.968Z,40.42
2023-03-02T10:56:05.834Z,39.31
2023-03-02T10:59:34.532Z,39.66
2023-03-02T11:06:06.412Z,41.07
2023-03-02T11:09:15.149Z,41.24
2023-03-02T11:12:19.867Z,41.71
2023-03-02T11:15:28.703Z,42.65
2023-03-02T11:18:50.507Z,44.22
2023-03-02T11:21:59.704Z,40.55
2023-03-02T11:25:09.492Z,42.76
2023-03-02T11:28:36.196Z,41.77
2023-03-02T11:31:43.649Z,45.15
2023-03-02T11:35:00.025Z,44.06
2023-03-02T11:38:27.985Z,46.02
2023-03-02T11:41:38.329Z,46.99
2023-03-02T11:44:40.989Z,47.45
2023-03-02T11:47:54.275Z,46.83
2023-03-02T11:51:01.324Z,47.24
2023-03-02T11:54:06.983Z,48.67
2023-03-02T11:57:32.707Z,46.99
2023-03-02T12:00:40.412Z,47.26
2023-03-02T12:03:46.996Z,47.29
2023-03-02T12:06:52.862Z,48.25
2023-03-02T12:10:10.566Z,47.79
2023-03-02T12:13:22.053Z,48.89
2023-03-02T12:16:37.336Z,48.67
2023-03-02T12:19:41.855Z,48.55
2023-03-02T12:22:45.180Z,47.65
2023-03-02T12:26:04.055Z,48.23
2023-03-02T12:29:09.643Z,50.92
2023-03-02T12:32:16.018Z,48.65
2023-03-02T12:35:21.030Z,48.79
2023-03-02T12:38:24.084Z,48.43
2023-03-02T12:41:42.294Z,48.72
2023-03-02T12:44:58.973Z,48.41
2023-03-02T12:48:21.992Z,47.28
2023-03-02T12:51:27.355Z,49.50
2023-03-02T12:54:32.179Z,48.49
2023-03-02T12:57:39.780Z,49.03
2023-03-02T13:00:51.182Z,48.03
2023-03-02T13:03:55.652Z,48.79
2023-03-02T13:06:58.807Z,47.69
2023-03-02T13:10:13.662Z,49.42
2023-03-02T13:13:24.472Z,48.67
2023-03-02T13:16:39.455Z,47.86
2023-03-02T13:19:44.860Z,47.79
2023-03-02T13:22:54.296Z,47.80
2023-03-02T13:25:59.838Z,47.93
2023-03-02T13:29:06.520Z,48.95
2023-03-02T13:32:21.124Z,47.86
2023-03-02T13:35:31.451Z,47.52
2023-03-02T13:38:39.350Z,48.12
2023-03-02T13:41:53.405Z,47.61
2023-03-02T13:45:01.423Z,48.13
2023-03-02T13:48:15.687Z,47.68
2023-03-02T13:51:19.600Z,47.74
2023-03-02T13:54:30.166Z,48.68
2023-03-02T13:57:33.956Z,47.65
2023-03-02T14:00:37.219Z,49.11
2023-03-02T14:03:40.450Z,48.13
2023-03-02T14:06:43.350Z,49.44
2023-03-02T14:09:47.615Z,48.52
2023-03-02T14:12:54.971Z,48.42
2023-03-02T14:16:00.380Z,48.49
2023-03-02T14:19:08.512Z,49.01
2023-03-02T14:22:12.849Z,49.39
2023-03-02T14:25:20.077Z,49.31
2023-03-02T14:28:29.594Z,48.69
2023-03-02T14:31:35.214Z,49.65
2023-03-02T14:34:39.955Z,49.24
2023-03-02T14:37:49.380Z,49.87
2023-03-02T14:40:52.375Z,49.48
2023-03-02T14:43:56.820Z,49.07
2023-03-02T14:47:00.850Z,48.92
2023-03-02T14:50:05.872Z,49.48
2023-03-02T14:53:14.300Z,48.70
2023-03-02T14:56:20.001Z,48.53
2023-03-02T14:59:26.123Z,49.92
2023-03-02T15:02:30.883Z,49.38
2023-03-02T15:05:34.180Z,49.76
2023-03-02T15:08:39.599Z,50.55
2023-03-02T15:11:43.532Z,51.98
2023-03-02T15:14:46.402Z,50.32
2023-03-02T15:17:50.204Z,51.09
2023-03-02T15:20:53.688Z,51.68
2023-03-02T15:23:56.938Z,50.61
2023-03-02T15:27:05.122Z,50.50
2023-03-02T15:30:08.841Z,51.77
2023-03-02T15:33:12.150Z,51.58
2023-03-02T15:36:19.421Z,51.71
2023-03-02T15:39:30.401Z,53.27
2023-03-02T15:42:36.456Z,53.41
2023-03-02T15:45:50.116Z,53.26
2023-03-02T15:48:54.746Z,53.60
2023-03-02T15:52:01.214Z,53.73
2023-03-02T15:55:06.874Z,54.72
2023-03-02T15:58:10.250Z,57.07
2023-03-02T16:01:21.461Z,55.42
2023-03-02T16:04:26.164Z,56.34
2023-03-02T16:07:30.099Z,55.66
2023-03-02T16:10:33.575Z,57.50
2023-03-02T16:13:37.598Z,57.96
2023-03-02T16:16:43.831Z,59.02
2023-03-02T16:19:54.156Z,59.88
2023-03-02T16:23:11.366Z,60.44
2023-03-02T16:26:20.222Z,60.82
2023-03-02T16:29:26.378Z,61.50
2023-03-02T16:32:30.799Z,61.91
2023-03-02T16:35:35.941Z,62.44
2023-03-02T16:38:38.355Z,62.71
2023-03-02T16:41:43.137Z,64.32
2023-03-02T16:44:48.272Z,63.92
2023-03-02T16:47:54.968Z,64.15
2023-03-02T16:50:59.668Z,65.01
2023-03-02T16:54:04.824Z,65.24
2023-03-02T16:57:14.672Z,65.10
2023-03-02T17:00:18.312Z,65.92
2023-03-02T17:03:23.318Z,66.52
2023-03-02T17:06:30.263Z,68.12
2023-03-02T17:09:38.517Z,68.37
2023-03-02T17:12:41.922Z,68.81
2023-03-02T17:15:45.236Z,69.44
2023-03-02T17:18:48.624Z,69.74
2023-03-02T17:21:52.936Z,70.02
2023-03-02T17:24:56.541Z,70.44
2023-03-02T17:28:00.339Z,70.96
2023-03-02T17:31:04.554Z,71.50
2023-03-02T17:34:09.735Z,72.21
2023-03-02T17:37:13.271Z,72.33
2023-03-02T17:40:18.358Z,72.12
2023-03-02T17:43:22.327Z,72.30
2023-03-02T17:46:27.359Z,72.76
2023-03-02T17:49:34.699Z,73.74
2023-03-02T17:52:38.932Z,73.89
2023-03-02T17:55:42.936Z,74.67
2023-03-02T17:58:54.025Z,75.08
2023-03-02T18:02:00.203Z,75.96
2023-03-02T18:05:04.443Z,75.96
2023-03-02T18:08:10.680Z,76.33
2023-03-02T18:11:18.918Z,76.98
2023-03-02T18:14:22.906Z,77.45
2023-03-02T18:17:29.094Z,78.20
2023-03-02T18:20:34.415Z,77.89
2023-03-02T18:30:25.359Z,78.66
2023-03-02T18:33:28.663Z,79.38
2023-03-02T18:36:33.184Z,81.42
2023-03-02T18:39:38.459Z,81.37
2023-03-02T18:42:42.788Z,82.19
2023-03-02T18:45:48.103Z,82.59
2023-03-02T18:48:53.248Z,82.72
2023-03-02T18:51:57.488Z,83.86
2023-03-02T18:55:04.276Z,84.69
2023-03-02T18:58:10.197Z,86.26
2023-03-02T19:01:14.700Z,86.91
2023-03-02T19:04:18.230Z,88.01
2023-03-02T19:07:22.090Z,88.57
2023-03-02T19:10:26.263Z,88.84
2023-03-02T19:13:30.650Z,89.85
2023-03-02T19:16:38.553Z,90.44
2023-03-02T19:19:43.907Z,90.95
2023-03-02T19:22:46.830Z,91.34
2023-03-02T19:25:52.706Z,91.51
2023-03-02T19:28:56.709Z,91.69
2023-03-02T19:32:00.043Z,91.82
2023-03-02T19:35:04.132Z,91.94
2023-03-02T19:38:09.271Z,92.22
2023-03-02T19:41:17.678Z,92.61
2023-03-02T19:44:22.186Z,92.78
2023-03-02T19:47:26.733Z,93.36
2023-03-02T19:50:32.487Z,93.97
2023-03-02T19:53:37.118Z,94.49
2023-03-02T19:56:46.636Z,94.70
2023-03-02T19:59:49.535Z,95.24
2023-03-02T20:02:53.472Z,96.11
2023-03-02T20:06:00.117Z,97.00
2023-03-02T20:09:06.612Z,97.31
2023-03-02T20:12:12.716Z,98.49
2023-03-02T20:15:17.920Z,98.76
2023-03-02T20:18:23.400Z,99.38
2023-03-02T20:21:27.962Z,100.00
2023-03-02T20:24:31.004Z,100.00
2023-03-02T20:27:37.479Z,100.00
2023-03-02T20:30:47.143Z,100.00
2023-03-02T20:33:53.799Z,100.00
2023-03-02T20:37:01.082Z,100.00
2023-03-02T20:40:10.328Z,100.00
2023-03-02T20:43:17.410Z,100.00
2023-03-02T20:46:29.998Z,100.00
2023-03-02T20:49:34.885Z,100.00
2023-03-02T20:52:39.931Z,100.00
2023-03-02T20:55:43.110Z,100.00
2023-03-02T20:58:47.932Z,100.00
2023-03-02T21:01:52.391Z,100.00
2023-03-02T21:04:57.751Z,100.00
2023-03-02T21:08:01.098Z,100.00
2023-03-02T21:11:09.562Z,100.00
2023-03-02T21:14:15.581Z,100.00
2023-03-02T21:17:18.341Z,100.00
2023-03-02T21:20:27.022Z,100.00
2023-03-02T21:23:32.131Z,100.00
2023-03-02T21:26:37.712Z,100.00
2023-03-02T21:29:45.996Z,100.00
2023-03-02T21:32:51.674Z,100.00
2023-03-02T21:35:54.570Z,100.00
2023-03-02T21:39:03.373Z,100.00
2023-03-02T21:42:06.050Z,100.00
2023-03-02T21:45:09.395Z,100.00
2023-03-02T21:48:14.262Z,100.00
2023-03-02T21:51:17.408Z,100.00
2023-03-02T21:54:19.880Z,100.00
2023-03-02T21:57:23.068Z,100.00
2023-03-02T22:00:28.103Z,100.00
2023-03-02T22:03:34.814Z,100.00
2023-03-02T22:06:39.509Z,100.00
2023-03-02T22:09:43.577Z,100.00
2023-03-02T22:12:49.079Z,100.00
2023-03-02T22:15:58.253Z,100.00
2023-03-02T22:19:05.420Z,100.00
2023-03-02T22:22:15.568Z,100.00
2023-03-02T22:25:19.984Z,100.00
2023-03-02T22:28:23.629Z,100.00
2023-03-02T22:31:27.018Z,100.00
2023-03-02T22:34:31.114Z,100.00
2023-03-02T22:37:36.175Z,100.00
2023-03-02T22:40:44.681Z,100.00
2023-03-02T22:43:48.494Z,100.00
2023-03-02T22:46:53.381Z,100.00
2023-03-02T22:49:58.360Z,100.00
2023-03-02T22:53:21.633Z,100.00
2023-03-02T22:56:36.489Z,100.00
2023-03-02T22:59:40.815Z,100.00
2023-03-02T23:02:48.720Z,100.00
2023-03-02T23:05:54.784Z,100.00
2023-03-02T23:09:02.715Z,100.00
2023-03-02T23:12:17.049Z,100.00
2023-03-02T23:15:27.310Z,100.00
2023-03-02T23:18:32.354Z,100.00
2023-03-02T23:21:41.894Z,100.00
2023-03-02T23:24:50.411Z,100.00
2023-03-02T23:27:54.328Z,100.00
2023-03-02T23:31:02.749Z,100.00
2023-03-02T23:34:10.754Z,100.00
2023-03-02T23:37:14.033Z,100.00
2023-03-02T23:40:17.654Z,100.00
2023-03-02T23:43:21.017Z,100.00
2023-03-02T23:46:29.005Z,100.00
2023-03-02T23:49:31.722Z,100.00
2023-03-02T23:52:35.911Z,100.00
2023-03-02T23:55:41.416Z,100.00
2023-03-02T23:58:44.395Z,100.00
